עמוד ראשי
METAR-TAF:

METAR-TAF

שדות תעופה :

Turaif, ערב הסעודית

קו רוחב: 31-41N, קו אורך: 038-44E, גובה: 813מטר

תצפית מזג אוויר נוכחית

הדו"ח נערך לפני 22דקות, בשעה 21:00 UTC
רוח 10קשר מכיוון צפון
טמפרטורת 29 צלסיוס
לחות 13%
לחץ 1012 hPa
ראות 10 קילומטר או יותר
ללא עננים שבסיסם נמוך מ 5000 רגל או קומולונימבוס

METAR: OETR 132100Z 36010KT CAVOK 29/M02 Q1012 NOSIG

זמן: 00:22 (21:22 UTC)

תחזית

הדו"ח נערך לפני 10 שעות ו 22דקות, בשעה 11:00 UTC
תחזית בתוקף מ 13 ב 12 UTC עד 14 ב 18 UTC
רוח 14קשר מכיוון צפון
ראות: 7000מטר

TAF: OETR 131100Z 1312/1418 36014KT 7000 NSC

תצפיות ותחזיות מזג אוויר לגבי יותר מ- 4,000 שדות תעופה ברחבי העולם. דוחות METAR ו- TAF.

התחנות הזמינות מסומנות בנקודות צהובות ואדומות על גבי המפה.

העבר את העכבר לנקודה הצבעונית על מנת לראות את שם התחנה.

לאחר מכן, לחץ כדי לראות את תוכן ואת תחזיות מזג האוויר.

כדי לשנות את המפה: לחץ על הכפתורים הירוקים עם הפלוס השחור כדי להתקרב; על הכפתור הירוק עם המקף כדי להתרחק; או בחיצים הירוקים למפות סמוכות.


METAR-TAF: